Time;durP1;ratioP1;P1;durP2;ratioP2;P2;SDS_P1;SDS_P2;PMS_P1;PMS_P2;Temp;Humidity;BMP_temperature;BMP_pressure;BME280_temperature;BME280_humidity;BME280_pressure;Samples;Min_cycle;Max_cycle;Signal;HPM_P1;HPM_P2
2021/06/13 00:01:35;;;;;;;17.67;11.23;;;11.50;99.90;;;;;;4974742;28;20573;-80
2021/06/13 00:04:04;;;;;;;23.40;11.05;;;11.50;99.90;;;;;;4974903;28;20065;-79
2021/06/13 00:06:37;;;;;;;19.75;10.52;;;11.40;99.90;;;;;;4962376;28;20058;-79
2021/06/13 00:09:08;;;;;;;15.75;10.70;;;11.40;99.90;;;;;;4971443;28;20137;-80
2021/06/13 00:11:35;;;;;;;24.40;12.00;;;11.40;99.90;;;;;;4954848;28;20097;-77
2021/06/13 00:14:03;;;;;;;19.48;10.60;;;11.40;99.90;;;;;;4992529;28;20062;-78
2021/06/13 00:16:31;;;;;;;17.52;11.02;;;11.30;99.90;;;;;;4989496;28;20049;-78
2021/06/13 00:18:57;;;;;;;17.85;9.88;;;11.30;99.90;;;;;;5009455;28;20049;-82
2021/06/13 00:21:24;;;;;;;22.45;10.93;;;11.30;99.90;;;;;;4992978;28;20081;-80
2021/06/13 00:23:51;;;;;;;21.13;10.77;;;11.30;99.90;;;;;;4993369;28;20044;-79
2021/06/13 00:26:19;;;;;;;15.60;10.82;;;11.30;99.90;;;;;;4974720;28;20070;-81
2021/06/13 00:28:50;;;;;;;18.63;10.50;;;11.20;99.90;;;;;;4979359;28;20070;-80
2021/06/13 00:31:22;;;;;;;21.20;12.00;;;11.20;99.90;;;;;;4953705;28;20472;-78
2021/06/13 00:33:54;;;;;;;31.02;11.55;;;11.10;99.90;;;;;;4977952;28;20049;-80
2021/06/13 00:36:21;;;;;;;18.50;10.75;;;11.10;99.90;;;;;;4996229;28;20533;-80
2021/06/13 00:38:48;;;;;;;23.60;10.93;;;11.10;99.90;;;;;;4982685;28;20097;-79
2021/06/13 00:41:17;;;;;;;20.83;11.07;;;11.00;99.90;;;;;;4950339;28;20060;-79
2021/06/13 00:43:46;;;;;;;16.85;11.25;;;11.10;99.90;;;;;;4965318;28;20073;-81
2021/06/13 00:46:21;;;;;;;27.10;11.95;;;11.10;99.90;;;;;;4955622;28;20507;-79
2021/06/13 00:48:48;;;;;;;24.52;10.88;;;11.00;99.90;;;;;;4993128;28;20034;-81
2021/06/13 00:51:16;;;;;;;19.92;11.25;;;11.00;99.90;;;;;;4987132;28;20042;-79
2021/06/13 00:53:45;;;;;;;20.88;11.38;;;11.00;99.90;;;;;;4964845;28;20050;-80
2021/06/13 00:56:16;;;;;;;23.75;11.55;;;11.00;99.90;;;;;;4971006;28;20434;-80
2021/06/13 00:58:53;;;;;;;13.63;10.57;;;10.90;99.90;;;;;;4978537;28;20081;-81
2021/06/13 01:01:26;;;;;;;16.67;11.32;;;10.90;99.90;;;;;;4979004;28;20050;-79
2021/06/13 01:03:54;;;;;;;23.45;11.32;;;10.90;99.90;;;;;;4963686;28;20046;-79
2021/06/13 01:06:50;;;;;;;23.20;12.70;;;10.80;99.90;;;;;;4990209;28;20065;-80
2021/06/13 01:09:24;;;;;;;21.23;11.45;;;10.70;99.90;;;;;;4940476;28;20070;-80
2021/06/13 01:12:02;;;;;;;18.13;10.63;;;10.70;99.90;;;;;;4998510;28;20045;-79
2021/06/13 01:14:44;;;;;;;21.60;11.60;;;10.70;99.90;;;;;;5013689;28;20049;-81
2021/06/13 01:17:21;;;;;;;20.33;10.77;;;10.60;99.90;;;;;;4975004;28;20058;-80
2021/06/13 01:20:24;;;;;;;16.80;10.80;;;10.60;99.90;;;;;;4976431;28;20049;-79
2021/06/13 01:23:29;;;;;;;22.73;10.75;;;10.40;99.90;;;;;;4973684;28;20081;-79
2021/06/13 01:26:28;;;;;;;19.15;10.75;;;10.40;99.90;;;;;;4967394;28;20050;-77
2021/06/13 01:29:02;;;;;;;21.65;11.52;;;10.40;99.90;;;;;;4963794;28;20474;-78
2021/06/13 01:31:36;;;;;;;17.63;11.05;;;10.30;99.90;;;;;;4988128;28;20104;-79
2021/06/13 01:34:08;;;;;;;21.73;10.27;;;10.30;99.90;;;;;;4975012;28;20070;-81
2021/06/13 01:36:38;;;;;;;24.40;10.93;;;10.30;99.90;;;;;;4975049;28;20137;-81
2021/06/13 01:39:13;;;;;;;20.10;11.50;;;10.20;99.90;;;;;;4991235;28;20078;-81
2021/06/13 01:41:44;;;;;;;24.05;11.18;;;10.10;99.90;;;;;;4972071;28;20053;-81
2021/06/13 01:44:12;;;;;;;25.35;11.95;;;10.10;99.90;;;;;;4988715;28;20497;-82
2021/06/13 01:46:41;;;;;;;29.27;12.13;;;10.00;99.90;;;;;;4938399;28;20129;-82
2021/06/13 01:49:13;;;;;;;25.08;11.77;;;10.00;99.90;;;;;;4938337;28;20133;-81
2021/06/13 01:51:43;;;;;;;29.20;11.05;;;9.90;99.90;;;;;;4939701;28;20078;-81
2021/06/13 01:54:12;;;;;;;21.95;11.93;;;9.90;99.90;;;;;;4955183;28;20412;-80
2021/06/13 01:56:49;;;;;;;26.40;11.75;;;9.90;99.90;;;;;;4955015;28;20054;-80
2021/06/13 01:59:24;;;;;;;21.15;11.88;;;9.80;99.90;;;;;;4961595;28;20050;-80
2021/06/13 02:01:59;;;;;;;21.50;11.25;;;9.80;99.90;;;;;;4942117;28;20061;-80
2021/06/13 02:04:32;;;;;;;20.85;11.13;;;9.70;99.90;;;;;;4956052;28;20682;-78
2021/06/13 02:07:07;;;;;;;20.05;10.93;;;9.80;99.90;;;;;;4973342;28;20051;-78
2021/06/13 02:09:35;;;;;;;21.75;11.52;;;9.70;99.90;;;;;;4965404;28;20517;-79
2021/06/13 02:12:07;;;;;;;19.33;10.48;;;9.70;99.90;;;;;;4959778;28;20121;-79
2021/06/13 02:15:08;;;;;;;18.45;9.70;;;9.60;99.90;;;;;;4962082;28;20053;-79
2021/06/13 02:17:47;;;;;;;24.70;11.05;;;9.60;99.90;;;;;;4976708;28;20471;-79
2021/06/13 02:20:21;;;;;;;23.73;10.52;;;9.60;99.90;;;;;;4973980;28;20046;-81
2021/06/13 02:22:48;;;;;;;26.45;11.15;;;9.50;99.90;;;;;;5009780;28;20053;-80
2021/06/13 02:25:19;;;;;;;26.48;12.35;;;9.60;99.90;;;;;;4979382;28;20053;-78
2021/06/13 02:27:47;;;;;;;18.05;11.65;;;9.70;99.90;;;;;;4996655;28;20675;-79
2021/06/13 02:30:17;;;;;;;31.02;12.50;;;9.50;99.90;;;;;;5006381;28;20468;-79
2021/06/13 02:32:46;;;;;;;22.65;11.80;;;9.40;99.90;;;;;;4966192;28;20556;-78
2021/06/13 02:35:17;;;;;;;29.83;12.35;;;9.30;99.90;;;;;;4983703;28;20539;-81
2021/06/13 02:37:50;;;;;;;28.60;12.23;;;9.30;99.90;;;;;;4993879;28;20413;-80
2021/06/13 02:40:27;;;;;;;25.77;12.45;;;9.30;99.90;;;;;;4970368;28;20050;-80
2021/06/13 02:42:58;;;;;;;23.58;11.23;;;9.30;99.90;;;;;;4939673;28;20047;-80
2021/06/13 02:45:29;;;;;;;17.33;10.63;;;9.30;99.90;;;;;;4953135;28;20059;-81
2021/06/13 02:47:56;;;;;;;29.90;12.60;;;9.30;99.90;;;;;;4955972;28;20047;-81
2021/06/13 02:50:30;;;;;;;27.20;12.18;;;9.30;99.90;;;;;;4971292;28;20050;-79
2021/06/13 02:53:20;;;;;;;25.00;12.82;;;9.30;99.90;;;;;;4940541;28;20051;-79
2021/06/13 02:56:15;;;;;;;27.30;13.07;;;9.30;99.90;;;;;;4941538;28;20062;-79
2021/06/13 02:59:02;;;;;;;29.80;11.20;;;9.20;99.90;;;;;;4976280;28;20605;-81
2021/06/13 03:01:31;;;;;;;26.40;12.52;;;9.20;99.90;;;;;;4984327;28;20043;-80
2021/06/13 03:04:00;;;;;;;30.65;12.70;;;9.20;99.90;;;;;;4982576;28;20138;-79
2021/06/13 03:06:30;;;;;;;27.20;12.25;;;9.10;99.90;;;;;;4954058;28;20045;-80
2021/06/13 03:08:58;;;;;;;33.03;12.40;;;9.10;99.90;;;;;;4955948;28;20047;-80
2021/06/13 03:11:26;;;;;;;21.10;11.57;;;9.10;99.90;;;;;;4991754;28;20050;-81
2021/06/13 03:13:55;;;;;;;27.10;11.98;;;9.00;99.90;;;;;;4991440;28;20047;-80
2021/06/13 03:16:23;;;;;;;25.95;11.43;;;9.00;99.90;;;;;;4973873;28;20152;-80
2021/06/13 03:18:54;;;;;;;36.00;13.25;;;9.00;99.90;;;;;;4974911;28;20042;-83
2021/06/13 03:21:24;;;;;;;23.27;11.55;;;8.90;99.90;;;;;;4985143;28;20069;-79
2021/06/13 03:23:51;;;;;;;23.73;11.20;;;8.80;99.90;;;;;;4957003;28;20049;-79
2021/06/13 03:26:20;;;;;;;28.05;11.52;;;8.80;99.90;;;;;;4969466;28;20046;-79
2021/06/13 03:28:52;;;;;;;24.45;11.35;;;8.80;99.90;;;;;;4987814;28;20544;-78
2021/06/13 03:31:20;;;;;;;32.40;12.57;;;8.80;99.90;;;;;;4984071;28;20070;-79
2021/06/13 03:33:48;;;;;;;30.65;12.50;;;8.80;99.90;;;;;;4952585;28;20046;-80
2021/06/13 03:36:17;;;;;;;26.73;12.48;;;8.80;99.90;;;;;;4965578;28;20105;-78
2021/06/13 03:38:46;;;;;;;27.45;12.45;;;8.80;99.90;;;;;;4944514;28;20097;-80
2021/06/13 03:41:16;;;;;;;24.38;13.38;;;8.80;99.90;;;;;;4938232;28;20061;-81
2021/06/13 03:43:43;;;;;;;24.67;13.45;;;8.80;99.90;;;;;;4972427;28;20070;-81
2021/06/13 03:46:12;;;;;;;33.33;13.95;;;8.80;99.90;;;;;;4970937;28;20070;-77
2021/06/13 03:48:41;;;;;;;32.72;14.23;;;8.80;99.90;;;;;;4996604;28;20352;-83
2021/06/13 03:51:11;;;;;;;31.70;13.50;;;8.90;99.90;;;;;;4976935;28;20801;-81
2021/06/13 03:53:53;;;;;;;24.17;13.27;;;9.00;99.90;;;;;;4958985;28;20053;-81
2021/06/13 03:56:24;;;;;;;29.00;12.82;;;9.00;99.90;;;;;;4981426;28;20154;-80
2021/06/13 03:58:52;;;;;;;24.30;12.52;;;8.90;99.90;;;;;;4974312;28;20055;-81
2021/06/13 04:01:21;;;;;;;27.85;12.25;;;8.80;99.90;;;;;;4972198;28;20058;-81
2021/06/13 04:03:55;;;;;;;39.05;11.88;;;8.70;99.90;;;;;;4983643;28;20050;-81
2021/06/13 04:06:23;;;;;;;25.63;12.05;;;8.60;99.90;;;;;;4972966;28;20108;-82
2021/06/13 04:08:52;;;;;;;22.33;11.63;;;8.50;99.90;;;;;;4964623;28;20053;-80
2021/06/13 04:11:21;;;;;;;23.45;12.30;;;8.40;99.90;;;;;;4991359;28;20047;-81
2021/06/13 04:13:49;;;;;;;23.13;11.90;;;8.30;99.90;;;;;;4975625;28;20070;-81
2021/06/13 04:16:20;;;;;;;21.63;10.50;;;8.30;99.90;;;;;;4973447;28;20494;-81
2021/06/13 04:18:48;;;;;;;27.23;12.70;;;8.40;99.90;;;;;;4986031;28;20295;-80
2021/06/13 04:21:15;;;;;;;29.20;12.70;;;8.40;99.90;;;;;;4954011;28;20074;-80
2021/06/13 04:23:44;;;;;;;27.23;12.90;;;8.60;99.90;;;;;;4986408;28;20059;-81
2021/06/13 04:26:16;;;;;;;32.22;15.05;;;8.70;99.90;;;;;;4970316;28;20065;-80
2021/06/13 04:28:44;;;;;;;23.45;12.75;;;8.80;99.90;;;;;;4970050;28;20042;-80
2021/06/13 04:31:16;;;;;;;23.67;11.77;;;9.10;99.90;;;;;;4974157;28;20065;-81
2021/06/13 04:33:46;;;;;;;24.45;11.57;;;9.40;99.90;;;;;;4980983;28;20076;-80
2021/06/13 04:36:19;;;;;;;23.23;10.82;;;9.70;99.90;;;;;;4986720;28;20057;-82
2021/06/13 04:38:46;;;;;;;23.90;10.38;;;10.20;99.90;;;;;;4974822;28;20046;-82
2021/06/13 04:41:13;;;;;;;15.32;10.63;;;10.40;99.90;;;;;;4965150;28;20048;-79
2021/06/13 04:43:41;;;;;;;18.05;11.27;;;10.60;99.90;;;;;;4999600;28;20081;-77
2021/06/13 04:46:12;;;;;;;21.90;11.48;;;10.90;99.90;;;;;;4982927;28;20047;-78
2021/06/13 04:48:40;;;;;;;21.80;13.30;;;11.20;99.90;;;;;;4983230;28;20449;-79
2021/06/13 04:51:11;;;;;;;24.50;14.80;;;11.50;99.90;;;;;;4980132;28;20081;-81
2021/06/13 04:53:47;;;;;;;27.75;14.65;;;11.70;99.90;;;;;;4973292;28;20053;-81
2021/06/13 04:56:54;;;;;;;30.73;14.50;;;11.80;99.90;;;;;;4973617;28;20061;-80
2021/06/13 04:59:21;;;;;;;25.88;13.77;;;11.80;99.90;;;;;;4953900;28;20482;-81
2021/06/13 05:01:48;;;;;;;22.35;14.60;;;11.80;99.90;;;;;;4975997;28;20339;-80
2021/06/13 05:04:16;;;;;;;24.52;14.18;;;11.90;99.90;;;;;;4985686;23;20046;-72
2021/06/13 05:06:44;;;;;;;26.08;15.80;;;12.10;99.90;;;;;;4998346;28;20039;-73
2021/06/13 05:09:12;;;;;;;33.42;15.95;;;12.30;99.90;;;;;;5008244;28;20058;-73
2021/06/13 05:11:39;;;;;;;21.40;14.80;;;12.50;99.90;;;;;;5022911;28;20038;-73
2021/06/13 05:14:06;;;;;;;26.27;14.75;;;12.60;99.90;;;;;;5000126;28;20074;-73
2021/06/13 05:16:33;;;;;;;17.27;14.32;;;12.70;99.90;;;;;;4996793;28;20058;-72
2021/06/13 05:19:01;;;;;;;22.75;14.40;;;12.90;99.90;;;;;;4989559;28;20042;-73
2021/06/13 05:21:28;;;;;;;22.70;14.55;;;12.80;99.90;;;;;;4987423;28;20038;-72
2021/06/13 05:23:55;;;;;;;30.33;15.75;;;12.60;99.90;;;;;;4991157;28;20065;-73
2021/06/13 05:26:22;;;;;;;18.15;13.35;;;12.60;99.90;;;;;;5006327;28;20050;-73
2021/06/13 05:28:49;;;;;;;19.70;13.10;;;12.80;99.90;;;;;;5005538;28;20065;-72
2021/06/13 05:31:16;;;;;;;15.55;12.25;;;12.90;99.90;;;;;;5007620;28;20085;-73
2021/06/13 05:33:43;;;;;;;15.38;12.57;;;13.20;99.90;;;;;;5013824;28;20034;-74
2021/06/13 05:36:10;;;;;;;22.83;13.63;;;13.40;99.90;;;;;;4992961;28;20560;-74
2021/06/13 05:38:40;;;;;;;16.35;12.43;;;13.60;99.90;;;;;;4984436;28;20054;-74
2021/06/13 05:41:07;;;;;;;22.85;13.60;;;13.60;99.90;;;;;;4967850;28;20199;-73
2021/06/13 05:43:34;;;;;;;17.45;13.55;;;13.60;99.90;;;;;;4984778;28;20109;-74
2021/06/13 05:46:02;;;;;;;20.25;13.35;;;13.70;99.90;;;;;;4985091;28;20042;-73
2021/06/13 05:48:30;;;;;;;17.88;14.05;;;13.70;99.90;;;;;;4965804;28;20050;-74
2021/06/13 05:50:57;;;;;;;21.23;13.68;;;13.80;99.90;;;;;;4963253;28;20720;-74
2021/06/13 05:53:24;;;;;;;18.77;14.25;;;14.00;99.90;;;;;;4964088;28;20086;-74
2021/06/13 05:55:51;;;;;;;20.38;13.00;;;14.10;99.90;;;;;;4979241;28;20047;-74
2021/06/13 05:58:18;;;;;;;22.23;13.63;;;14.20;99.90;;;;;;4982817;28;20093;-74
2021/06/13 06:00:46;;;;;;;18.20;12.90;;;14.20;99.90;;;;;;4982746;28;20069;-74
2021/06/13 06:03:13;;;;;;;21.63;14.88;;;14.60;99.90;;;;;;4986374;28;20063;-74
2021/06/13 06:05:40;;;;;;;25.83;14.23;;;14.60;99.90;;;;;;4984248;28;20039;-74
2021/06/13 06:08:08;;;;;;;20.60;13.75;;;14.70;99.90;;;;;;4981904;28;20086;-74
2021/06/13 06:10:35;;;;;;;19.20;13.57;;;14.70;99.90;;;;;;4993352;28;20061;-75
2021/06/13 06:13:04;;;;;;;17.58;14.13;;;14.90;99.90;;;;;;4985850;28;20209;-74
2021/06/13 06:15:34;;;;;;;22.38;15.65;;;15.10;99.90;;;;;;5017690;28;20270;-74
2021/06/13 06:18:02;;;;;;;17.35;14.82;;;15.10;99.90;;;;;;5012989;28;20146;-74
2021/06/13 06:20:31;;;;;;;17.85;13.35;;;15.10;99.90;;;;;;4981986;28;20526;-75
2021/06/13 06:22:59;;;;;;;26.83;14.73;;;15.20;99.90;;;;;;4964267;28;20512;-75
2021/06/13 06:25:27;;;;;;;16.67;13.57;;;15.50;99.90;;;;;;4981863;28;20114;-75
2021/06/13 06:27:54;;;;;;;20.48;14.35;;;15.60;99.90;;;;;;4965514;28;20404;-75
2021/06/13 06:30:23;;;;;;;20.65;14.55;;;15.50;99.90;;;;;;4982344;28;20050;-74
2021/06/13 06:32:50;;;;;;;18.45;14.23;;;15.60;99.90;;;;;;4970851;28;20038;-74
2021/06/13 06:35:18;;;;;;;22.02;12.77;;;15.70;99.90;;;;;;4980850;28;20117;-74
2021/06/13 06:37:45;;;;;;;16.63;14.05;;;15.90;99.90;;;;;;4983174;28;20034;-75
2021/06/13 06:40:13;;;;;;;19.95;14.57;;;16.10;99.90;;;;;;4983342;28;20364;-74
2021/06/13 06:42:41;;;;;;;21.10;13.95;;;16.20;99.90;;;;;;4966998;28;20047;-75
2021/06/13 06:45:11;;;;;;;23.08;13.90;;;16.30;99.90;;;;;;4976977;28;20067;-74
2021/06/13 06:47:38;;;;;;;15.18;13.23;;;16.60;99.90;;;;;;4946359;28;20398;-75
2021/06/13 06:50:07;;;;;;;16.25;13.63;;;16.50;99.90;;;;;;4962769;28;20061;-75
2021/06/13 06:52:34;;;;;;;16.65;12.90;;;16.30;99.90;;;;;;4961385;28;20085;-74
2021/06/13 06:55:02;;;;;;;17.48;12.85;;;16.70;99.90;;;;;;4964236;28;20141;-74
2021/06/13 06:57:30;;;;;;;13.73;12.50;;;17.00;99.90;;;;;;4946612;28;20086;-74
2021/06/13 06:59:57;;;;;;;17.17;12.68;;;16.70;99.90;;;;;;4930310;28;20061;-75
2021/06/13 07:02:24;;;;;;;14.98;12.55;;;17.00;99.90;;;;;;4978753;28;20604;-75
2021/06/13 07:04:51;;;;;;;16.60;12.48;;;17.40;99.90;;;;;;4997896;28;20152;-75
2021/06/13 07:07:18;;;;;;;18.80;12.10;;;17.30;99.90;;;;;;4996413;28;20053;-75
2021/06/13 07:09:45;;;;;;;14.13;11.93;;;17.10;99.90;;;;;;4980733;28;20046;-75
2021/06/13 07:12:12;;;;;;;13.43;12.20;;;16.70;99.90;;;;;;4965320;28;20042;-75
2021/06/13 07:14:39;;;;;;;13.07;12.05;;;16.50;99.90;;;;;;4964888;28;20566;-75
2021/06/13 07:17:06;;;;;;;12.90;11.75;;;16.70;99.90;;;;;;4984341;28;20057;-76
2021/06/13 07:19:33;;;;;;;14.25;12.45;;;16.70;99.90;;;;;;4987154;28;20054;-75
2021/06/13 07:22:01;;;;;;;14.07;12.70;;;16.70;99.90;;;;;;4985355;28;20038;-75
2021/06/13 07:24:27;;;;;;;15.15;11.80;;;16.80;99.90;;;;;;4978868;28;20517;-75
2021/06/13 07:26:54;;;;;;;11.98;10.75;;;17.10;99.90;;;;;;4951585;28;20109;-75
2021/06/13 07:29:21;;;;;;;12.88;11.63;;;16.40;99.90;;;;;;4984834;28;20141;-75
2021/06/13 07:31:49;;;;;;;12.70;11.38;;;16.00;99.90;;;;;;4985310;28;20141;-75
2021/06/13 07:34:16;;;;;;;16.05;10.95;;;16.10;99.90;;;;;;4995371;28;20050;-75
2021/06/13 07:36:43;;;;;;;12.27;10.93;;;16.30;99.90;;;;;;4983451;28;20493;-74
2021/06/13 07:39:10;;;;;;;11.93;10.90;;;16.20;99.90;;;;;;4982337;28;20073;-74
2021/06/13 07:41:37;;;;;;;14.55;11.27;;;15.90;99.90;;;;;;4984483;28;20604;-74
2021/06/13 07:44:05;;;;;;;11.98;10.88;;;16.50;99.90;;;;;;4984243;28;20468;-75
2021/06/13 07:46:36;;;;;;;15.07;12.02;;;17.20;99.90;;;;;;4984540;28;20540;-76
2021/06/13 07:49:03;;;;;;;13.05;11.93;;;17.80;99.90;;;;;;4985449;28;20070;-75
2021/06/13 07:51:31;;;;;;;19.05;13.50;;;18.20;99.90;;;;;;4984521;28;20070;-75
2021/06/13 07:53:57;;;;;;;13.68;11.82;;;18.30;99.90;;;;;;4988634;28;20072;-75
2021/06/13 07:56:25;;;;;;;13.13;11.88;;;18.30;99.90;;;;;;4985865;28;20500;-76
2021/06/13 07:58:51;;;;;;;13.60;12.18;;;18.20;99.90;;;;;;4984444;28;20054;-76
2021/06/13 08:01:18;;;;;;;14.45;12.93;;;17.80;99.90;;;;;;4986147;28;20042;-75
2021/06/13 08:03:45;;;;;;;13.02;11.82;;;17.40;99.90;;;;;;4988898;28;20045;-74
2021/06/13 08:06:12;;;;;;;13.38;12.07;;;17.10;99.90;;;;;;4996517;28;20057;-75
2021/06/13 08:08:40;;;;;;;14.85;12.32;;;17.30;99.90;;;;;;4968425;28;20042;-74
2021/06/13 08:11:08;;;;;;;12.27;11.38;;;17.40;99.90;;;;;;4968431;28;20089;-75
2021/06/13 08:13:36;;;;;;;13.32;11.15;;;17.70;99.90;;;;;;4986368;28;20073;-74
2021/06/13 08:16:04;;;;;;;12.07;11.07;;;17.60;99.90;;;;;;4978885;28;20085;-76
2021/06/13 08:18:32;;;;;;;13.02;11.73;;;17.50;99.90;;;;;;4998952;28;20049;-74
2021/06/13 08:20:59;;;;;;;12.82;11.55;;;17.30;99.90;;;;;;4982863;28;20424;-74
2021/06/13 08:23:26;;;;;;;13.25;11.82;;;17.40;99.90;;;;;;4983861;28;20069;-75
2021/06/13 08:25:53;;;;;;;13.10;11.35;;;17.60;99.90;;;;;;4984073;28;20050;-76
2021/06/13 08:28:20;;;;;;;15.30;11.65;;;17.60;99.90;;;;;;4982441;28;20073;-74
2021/06/13 08:30:48;;;;;;;12.60;11.57;;;17.30;99.90;;;;;;4982862;28;20464;-75
2021/06/13 08:33:15;;;;;;;13.02;11.63;;;16.90;99.90;;;;;;4988445;28;20571;-75
2021/06/13 08:35:42;;;;;;;12.68;11.48;;;16.50;99.90;;;;;;4984180;28;20038;-74
2021/06/13 08:38:09;;;;;;;12.05;11.10;;;17.20;99.90;;;;;;5000177;28;20548;-75
2021/06/13 08:40:38;;;;;;;15.88;11.88;;;17.80;99.90;;;;;;4985081;28;20109;-74
2021/06/13 08:43:05;;;;;;;11.90;10.70;;;18.00;99.90;;;;;;4983834;28;20062;-76
2021/06/13 08:45:34;;;;;;;12.00;10.52;;;18.50;99.90;;;;;;4983939;28;20038;-75
2021/06/13 08:48:02;;;;;;;12.20;11.00;;;18.80;99.90;;;;;;4968677;28;20496;-75
2021/06/13 08:50:31;;;;;;;13.13;11.65;;;18.80;99.90;;;;;;4978892;28;20122;-74
2021/06/13 08:52:58;;;;;;;12.07;11.02;;;18.80;99.90;;;;;;4985672;28;20038;-74
2021/06/13 08:55:28;;;;;;;12.50;11.23;;;18.80;99.90;;;;;;5004797;28;20046;-74
2021/06/13 08:57:56;;;;;;;12.55;11.55;;;19.10;99.90;;;;;;4994844;28;20055;-74
2021/06/13 09:00:27;;;;;;;11.43;10.27;;;19.50;99.90;;;;;;4983667;28;20061;-74
2021/06/13 09:02:55;;;;;;;12.15;11.00;;;19.50;99.90;;;;;;4953930;28;20065;-74
2021/06/13 09:05:27;;;;;;;11.40;10.50;;;19.30;99.90;;;;;;4996815;28;21337;-74
2021/06/13 09:07:55;;;;;;;11.93;10.73;;;19.00;99.90;;;;;;4992519;28;20057;-74
2021/06/13 09:10:27;;;;;;;11.93;10.88;;;19.10;99.90;;;;;;4989240;28;20054;-73
2021/06/13 09:13:22;;;;;;;11.57;10.55;;;19.20;99.90;;;;;;4967361;28;20926;-74
2021/06/13 09:15:58;;;;;;;11.90;10.85;;;19.50;99.90;;;;;;4999359;28;20054;-74
2021/06/13 09:18:37;;;;;;;12.35;11.02;;;19.20;99.90;;;;;;4984728;28;20046;-74
2021/06/13 09:21:13;;;;;;;10.90;10.00;;;19.50;99.90;;;;;;4983629;28;20149;-73
2021/06/13 09:23:42;;;;;;;10.77;9.90;;;19.50;99.90;;;;;;4983158;28;20141;-74
2021/06/13 09:26:10;;;;;;;11.77;10.73;;;19.80;99.90;;;;;;4983188;28;20435;-74
2021/06/13 09:28:41;;;;;;;11.02;10.07;;;20.00;99.90;;;;;;4965710;28;20525;-74
2021/06/13 09:31:20;;;;;;;12.25;11.13;;;18.90;99.90;;;;;;4982545;28;20326;-74
2021/06/13 09:33:52;;;;;;;12.02;10.88;;;18.70;99.90;;;;;;4987863;28;20053;-74
2021/06/13 09:36:23;;;;;;;12.73;11.45;;;19.10;99.90;;;;;;4981798;28;20543;-74
2021/06/13 09:38:56;;;;;;;13.25;11.40;;;19.20;99.90;;;;;;4991670;28;20046;-74
2021/06/13 09:41:23;;;;;;;11.98;10.95;;;19.40;99.90;;;;;;4963173;28;20464;-74
2021/06/13 09:43:59;;;;;;;11.32;10.52;;;19.80;99.90;;;;;;4965052;28;20047;-74
2021/06/13 09:46:29;;;;;;;12.45;11.35;;;20.00;99.90;;;;;;4962634;28;20727;-75
2021/06/13 09:49:05;;;;;;;11.30;10.07;;;20.30;99.90;;;;;;4981645;28;20456;-75
2021/06/13 09:51:34;;;;;;;12.07;11.00;;;20.60;99.90;;;;;;4982092;28;20046;-74
2021/06/13 09:54:06;;;;;;;12.15;11.07;;;20.70;99.90;;;;;;4998114;28;20058;-74
2021/06/13 09:56:41;;;;;;;10.98;10.05;;;20.50;99.90;;;;;;4978813;28;20141;-74
2021/06/13 09:59:09;;;;;;;11.60;10.75;;;20.60;99.90;;;;;;4981470;28;20053;-74
2021/06/13 10:01:43;;;;;;;11.75;10.80;;;20.60;99.90;;;;;;4981004;28;20520;-74
2021/06/13 10:04:24;;;;;;;12.00;11.00;;;20.80;99.90;;;;;;4986518;28;20478;-74
2021/06/13 10:06:56;;;;;;;12.50;11.52;;;21.10;99.90;;;;;;4976262;28;20046;-75
2021/06/13 10:09:35;;;;;;;12.50;11.13;;;20.90;99.90;;;;;;4983755;28;20078;-74
2021/06/13 10:12:10;;;;;;;12.43;11.15;;;20.50;99.90;;;;;;4972752;28;20046;-76
2021/06/13 10:14:38;;;;;;;;;;;20.70;99.90;;;;;;4985955;28;20054;-73
2021/06/13 10:17:05;;;;;;;13.82;11.73;;;20.90;99.90;;;;;;4999552;28;19940;-73
2021/06/13 10:19:42;;;;;;;11.80;10.90;;;21.00;99.90;;;;;;4967099;28;20081;-74
2021/06/13 10:22:11;;;;;;;11.85;10.90;;;21.10;99.90;;;;;;4950715;28;20133;-72
2021/06/13 10:24:41;;;;;;;12.80;11.60;;;20.40;99.90;;;;;;4966003;28;20385;-80
2021/06/13 10:27:11;;;;;;;11.45;10.18;;;20.50;99.90;;;;;;4952088;28;20050;-79
2021/06/13 10:29:40;;;;;;;13.00;11.82;;;20.50;99.90;;;;;;4947804;28;20596;-81
2021/06/13 10:32:09;;;;;;;11.93;10.88;;;20.70;99.90;;;;;;4952431;28;20890;-80
2021/06/13 10:34:36;;;;;;;11.05;10.05;;;21.00;99.90;;;;;;4971744;28;20555;-80
2021/06/13 10:37:06;;;;;;;11.50;10.48;;;21.30;99.90;;;;;;4981265;28;20106;-82
2021/06/13 10:39:34;;;;;;;12.23;11.10;;;21.60;99.90;;;;;;4949108;28;20047;-82
2021/06/13 10:42:03;;;;;;;11.32;10.40;;;21.70;99.90;;;;;;4950048;28;20051;-82
2021/06/13 10:45:05;;;;;;;11.52;10.50;;;21.60;99.90;;;;;;4975988;28;20539;-80
2021/06/13 10:47:33;;;;;;;11.10;10.23;;;21.40;99.90;;;;;;4982567;28;20062;-83
2021/06/13 10:50:05;;;;;;;11.73;10.60;;;21.50;99.90;;;;;;4983762;28;20129;-82
2021/06/13 10:52:32;;;;;;;11.52;10.50;;;21.20;99.90;;;;;;4985540;28;20073;-82
2021/06/13 10:55:01;;;;;;;11.57;10.32;;;21.00;99.90;;;;;;4972969;28;20061;-83
2021/06/13 10:57:53;;;;;;;11.35;10.20;;;21.30;99.90;;;;;;4972577;28;20074;-77
2021/06/13 11:00:20;;;;;;;11.43;10.43;;;21.50;99.90;;;;;;4990154;28;20097;-81
2021/06/13 11:02:57;;;;;;;11.50;10.50;;;21.50;99.90;;;;;;4973180;28;20069;-81
2021/06/13 11:05:39;;;;;;;;;;;21.40;99.90;;;;;;5013219;28;20053;-81
2021/06/13 11:08:07;;;;;;;11.63;10.52;;;21.40;99.90;;;;;;4998522;28;19911;-82
2021/06/13 11:10:34;;;;;;;13.32;11.60;;;21.50;99.90;;;;;;5003599;28;20030;-81
2021/06/13 11:13:06;;;;;;;12.05;10.95;;;21.40;99.90;;;;;;4976648;28;20035;-80
2021/06/13 11:15:39;;;;;;;11.48;10.68;;;21.40;99.90;;;;;;4996658;28;20047;-80
2021/06/13 11:18:15;;;;;;;12.80;11.32;;;21.50;99.90;;;;;;4964923;28;20376;-80
2021/06/13 11:21:04;;;;;;;14.35;10.05;;;21.50;99.90;;;;;;4975261;28;20069;-79
2021/06/13 11:23:30;;;;;;;11.15;10.25;;;21.50;99.90;;;;;;5002631;28;20673;-80
2021/06/13 11:25:59;;;;;;;11.50;10.43;;;20.90;99.90;;;;;;4954693;28;20050;-80
2021/06/13 11:28:30;;;;;;;11.75;10.80;;;21.10;99.90;;;;;;4973873;28;20042;-80
2021/06/13 11:30:58;;;;;;;11.10;10.40;;;21.60;99.90;;;;;;4970666;28;20038;-81
2021/06/13 11:33:34;;;;;;;11.90;10.95;;;22.00;99.90;;;;;;4975801;28;20046;-80
2021/06/13 11:36:04;;;;;;;11.13;10.43;;;22.00;99.90;;;;;;4966778;28;20569;-80
2021/06/13 11:38:32;;;;;;;11.50;10.50;;;22.00;99.90;;;;;;4973340;28;20050;-81
2021/06/13 11:41:04;;;;;;;11.63;10.63;;;22.20;98.20;;;;;;4987970;28;20160;-81
2021/06/13 11:43:37;;;;;;;11.43;10.48;;;22.20;99.00;;;;;;4954023;28;20050;-81
2021/06/13 11:46:06;;;;;;;11.88;10.82;;;22.30;99.90;;;;;;4954197;28;20066;-81
2021/06/13 11:48:53;;;;;;;11.35;10.32;;;22.30;99.50;;;;;;5001757;28;20651;-80
2021/06/13 11:51:20;;;;;;;10.88;10.23;;;21.70;99.60;;;;;;4982945;28;20514;-81
2021/06/13 11:54:02;;;;;;;11.05;10.18;;;22.00;99.90;;;;;;5003331;28;20174;-80
2021/06/13 11:56:32;;;;;;;11.70;10.65;;;22.00;99.10;;;;;;4958154;28;20046;-80
2021/06/13 11:59:02;;;;;;;12.23;11.05;;;21.80;98.60;;;;;;4994113;28;20323;-81
2021/06/13 12:01:33;;;;;;;12.95;11.60;;;21.90;99.40;;;;;;4989956;28;20057;-81
2021/06/13 12:04:00;;;;;;;11.57;10.57;;;21.70;99.40;;;;;;4986559;28;20677;-81
2021/06/13 12:06:27;;;;;;;11.50;10.50;;;21.50;98.40;;;;;;4987395;28;20568;-79
2021/06/13 12:08:55;;;;;;;11.75;10.65;;;21.60;99.90;;;;;;4989338;28;20050;-79
2021/06/13 12:11:58;;;;;;;11.63;10.57;;;21.50;99.90;;;;;;4967077;28;20075;-79
2021/06/13 12:14:28;;;;;;;12.10;11.13;;;21.90;99.90;;;;;;4996386;28;20487;-79
2021/06/13 12:16:56;;;;;;;12.48;11.43;;;22.20;99.90;;;;;;4986050;28;20046;-80
2021/06/13 12:19:40;;;;;;;13.93;10.82;;;22.00;99.90;;;;;;4969305;28;20073;-80
2021/06/13 12:27:40;;;;;;;11.18;10.35;;;22.10;99.30;;;;;;4968681;28;20046;-80
2021/06/13 12:30:15;;;;;;;11.93;10.82;;;22.30;99.90;;;;;;4981166;28;20140;-81
2021/06/13 12:32:52;;;;;;;12.27;11.27;;;22.60;99.90;;;;;;4991194;28;20053;-80
2021/06/13 12:35:20;;;;;;;10.10;9.50;;;22.70;99.70;;;;;;4995628;28;20082;-81
2021/06/13 12:38:14;;;;;;;11.60;10.63;;;23.00;99.90;;;;;;4987573;28;20160;-80
2021/06/13 12:40:51;;;;;;;11.50;10.63;;;23.00;99.50;;;;;;4985604;28;20050;-81
2021/06/13 12:43:36;;;;;;;11.75;10.73;;;22.80;97.70;;;;;;4971776;28;20046;-81
2021/06/13 12:46:05;;;;;;;11.93;10.93;;;22.90;98.30;;;;;;4953738;28;20049;-80
2021/06/13 12:48:34;;;;;;;11.75;10.73;;;22.80;99.30;;;;;;4969278;28;20038;-80
2021/06/13 12:51:02;;;;;;;11.95;10.82;;;22.80;98.80;;;;;;4981950;28;20034;-80
2021/06/13 12:53:35;;;;;;;12.43;10.98;;;22.50;97.50;;;;;;4965651;28;20046;-80
2021/06/13 12:56:03;;;;;;;11.27;10.30;;;22.50;99.90;;;;;;4948972;28;20101;-80